Snow/Ice From: 17-12-2017 10:00 Until: 18-12-2017 06:00 warning for: Snow/Ice Level: Yellow info button

Although rather usual in this region, locally or potentially dangerous phenomena are expected. (such as local winds, summer thunderstorms, rising streams or high waves) Be aware and pay attention to the latest weather updates, especially if you carry out activities exposed to weather or close to a stream or shoreline. 


Meteo18 Weather Cam more information Meteo18 Weather Cam


Thunder radar more information blitzortung!


warning for Snow/Ice more information rain snow radar


Visit our other weather sites:

Template documentation
and downloads

And another site



Weather Underground History page Text

Daily Summary for October 16, 2016 Units:  Metric    English   Both
« Previous Day
Next Day »
Daily Weekly Monthly Yearly Custom
  High: Low: Average:
Temperature: 19.8 °C 7.4 °C 12.7 °C
Dew Point: 11.9 °C 6.7 °C 9.7 °C
Humidity: 97 % 59 % 83 %
Wind Speed: 14.5 km/h 0.0 km/h 1 km/h
Wind Gust: 16.1 km/h - -
Wind:- - South
Pressure: 1019.2 hPa 1015.8 hPa -
Precipitation: 0.3 mm    
Historical Graphs
 
 
Tabular Data for October 16, 2016
Time Temperature Dew Point Pressure Wind Wind Speed Wind Gust Humidity Rainfall Rate (Hourly)
00:02 9.4 °C 8.0 °C 1015.8 hPa West 1.6 km/h 1.6 km/h 91 % 0.0 mm
00:07 9.2 °C 8.0 °C 1015.8 hPa WNW 1.6 km/h 3.2 km/h 92 % 0.0 mm
00:12 9.1 °C 8.0 °C 1016.1 hPa WNW 1.6 km/h 3.2 km/h 93 % 0.0 mm
00:17 9.2 °C 8.3 °C 1015.8 hPa Calm   3.2 km/h 94 % 0.0 mm
00:22 9.3 °C 8.4 °C 1015.8 hPa Calm   3.2 km/h 94 % 0.0 mm
00:32 9.2 °C 8.1 °C 1016.1 hPa Calm   1.6 km/h 93 % 0.0 mm
00:42 8.9 °C 7.8 °C 1015.8 hPa Calm     93 % 0.0 mm
00:47 9.1 °C 8.2 °C 1015.8 hPa Calm     94 % 0.0 mm
00:52 9.2 °C 8.3 °C 1015.8 hPa Calm     94 % 0.0 mm
00:57 9.2 °C 8.3 °C 1015.8 hPa Calm     94 % 0.0 mm
01:02 9.2 °C 8.1 °C 1015.8 hPa Calm     93 % 0.0 mm
01:07 9.1 °C 8.0 °C 1016.1 hPa Calm     93 % 0.0 mm
01:12 9.0 °C 7.9 °C 1015.8 hPa Calm     93 % 0.0 mm
01:17 8.9 °C 7.8 °C 1015.8 hPa Calm     93 % 0.0 mm
01:22 9.1 °C 8.0 °C 1016.1 hPa Calm     93 % 0.0 mm
01:27 9.0 °C 7.9 °C 1015.8 hPa Calm     93 % 0.0 mm
01:32 8.9 °C 7.8 °C 1016.1 hPa Calm     93 % 0.0 mm
01:37 8.7 °C 7.6 °C 1016.1 hPa Calm     93 % 0.0 mm
01:42 8.9 °C 8.0 °C 1016.1 hPa Calm     94 % 0.0 mm
01:47 9.0 °C 8.1 °C 1016.1 hPa Calm     94 % 0.0 mm
01:52 8.9 °C 8.0 °C 1016.1 hPa Calm     94 % 0.0 mm
01:57 8.8 °C 7.9 °C 1016.1 hPa Calm     94 % 0.0 mm
02:02 8.6 °C 7.5 °C 1016.1 hPa Calm     93 % 0.0 mm
02:07 8.4 °C 7.5 °C 1016.1 hPa Calm     94 % 0.0 mm
02:12 8.5 °C 7.6 °C 1016.1 hPa Calm     94 % 0.0 mm
02:17 8.4 °C 7.5 °C 1016.5 hPa Calm     94 % 0.0 mm
02:22 8.4 °C 7.6 °C 1016.5 hPa Calm     95 % 0.0 mm
02:27 8.4 °C 7.6 °C 1016.5 hPa Calm     95 % 0.0 mm
02:32 8.2 °C 7.3 °C 1016.5 hPa Calm     94 % 0.0 mm
02:37 8.0 °C 7.1 °C 1016.5 hPa Calm     94 % 0.0 mm
02:42 8.1 °C 7.3 °C 1016.5 hPa Calm     95 % 0.0 mm
02:47 8.1 °C 7.3 °C 1016.5 hPa Calm     95 % 0.0 mm
02:57 7.9 °C 7.1 °C 1016.5 hPa Calm     95 % 0.0 mm
03:02 8.1 °C 7.5 °C 1016.5 hPa Calm     96 % 0.0 mm
03:07 8.2 °C 7.6 °C 1016.5 hPa Calm     96 % 0.0 mm
03:12 8.3 °C 7.7 °C 1016.5 hPa Calm     96 % 0.0 mm
03:17 8.4 °C 7.8 °C 1016.5 hPa Calm     96 % 0.0 mm
03:22 8.4 °C 7.8 °C 1016.5 hPa Calm     96 % 0.0 mm
03:27 8.5 °C 7.9 °C 1016.5 hPa Calm     96 % 0.0 mm
03:32 8.3 °C 7.5 °C 1016.5 hPa Calm     95 % 0.0 mm
03:37 8.2 °C 7.4 °C 1016.5 hPa Calm     95 % 0.0 mm
03:42 8.2 °C 7.4 °C 1016.5 hPa Calm     95 % 0.0 mm
03:47 8.2 °C 7.6 °C 1016.5 hPa Calm     96 % 0.0 mm
03:52 8.1 °C 7.5 °C 1016.5 hPa Calm     96 % 0.0 mm
04:02 8.3 °C 7.7 °C 1016.1 hPa Calm     96 % 0.0 mm
04:07 8.2 °C 7.6 °C 1016.1 hPa Calm     96 % 0.0 mm
04:12 8.2 °C 7.6 °C 1016.1 hPa Calm     96 % 0.0 mm
04:17 8.1 °C 7.3 °C 1016.1 hPa Calm     95 % 0.0 mm
04:22 7.9 °C 7.1 °C 1016.1 hPa Calm     95 % 0.0 mm
04:32 7.9 °C 7.3 °C 1016.1 hPa NNW 3.2 km/h 3.2 km/h 96 % 0.0 mm
04:37 7.9 °C 7.3 °C 1016.1 hPa NNW 1.6 km/h 4.8 km/h 96 % 0.0 mm
04:42 7.9 °C 7.3 °C 1016.1 hPa NNW 1.6 km/h 4.8 km/h 96 % 0.0 mm
04:47 7.9 °C 7.3 °C 1016.1 hPa Calm   4.8 km/h 96 % 0.0 mm
04:52 7.9 °C 7.3 °C 1016.1 hPa NNW 1.6 km/h 4.8 km/h 96 % 0.0 mm
04:57 7.8 °C 7.2 °C 1016.1 hPa Calm   3.2 km/h 96 % 0.0 mm
05:02 8.0 °C 7.4 °C 1016.1 hPa North 1.6 km/h 1.6 km/h 96 % 0.0 mm
05:12 7.9 °C 7.3 °C 1016.1 hPa NNW 1.6 km/h 1.6 km/h 96 % 0.0 mm
05:22 8.1 °C 7.5 °C 1016.1 hPa Calm   3.2 km/h 96 % 0.0 mm
05:32 7.8 °C 7.0 °C 1015.8 hPa Calm   3.2 km/h 95 % 0.0 mm
05:42 7.4 °C 6.7 °C 1015.8 hPa WNW 1.6 km/h 3.2 km/h 95 % 0.0 mm
05:52 7.7 °C 7.1 °C 1015.8 hPa Calm   1.6 km/h 96 % 0.0 mm
05:57 7.8 °C 7.2 °C 1016.1 hPa Calm   1.6 km/h 96 % 0.0 mm
06:02 7.8 °C 7.2 °C 1016.1 hPa Calm   1.6 km/h 96 % 0.0 mm
06:12 7.8 °C 7.2 °C 1016.1 hPa Calm   1.6 km/h 96 % 0.0 mm
06:17 7.8 °C 7.2 °C 1016.1 hPa Calm     96 % 0.0 mm
06:22 7.8 °C 7.2 °C 1016.1 hPa Calm     96 % 0.0 mm
06:32 7.6 °C 7.0 °C 1016.1 hPa Calm     96 % 0.0 mm
06:37 7.7 °C 7.1 °C 1016.1 hPa Calm     96 % 0.0 mm
06:42 7.6 °C 7.0 °C 1016.1 hPa Calm     96 % 0.0 mm
06:47 7.8 °C 7.4 °C 1016.1 hPa Calm     97 % 0.0 mm
06:52 7.7 °C 7.1 °C 1016.1 hPa Calm     96 % 0.0 mm
06:57 7.8 °C 7.2 °C 1016.1 hPa Calm     96 % 0.0 mm
07:02 7.7 °C 7.1 °C 1016.1 hPa Calm     96 % 0.0 mm
07:12 7.7 °C 7.1 °C 1016.1 hPa Calm     96 % 0.0 mm
07:17 7.7 °C 7.3 °C 1016.1 hPa Calm     97 % 0.0 mm
07:22 7.8 °C 7.4 °C 1016.1 hPa Calm     97 % 0.0 mm
07:32 7.7 °C 7.1 °C 1016.1 hPa Calm     96 % 0.3 mm
07:42 7.4 °C 6.8 °C 1016.1 hPa Calm     96 % 0.3 mm
07:57 7.7 °C 7.3 °C 1016.1 hPa Calm     97 % 0.3 mm
08:02 7.7 °C 7.1 °C 1016.1 hPa Calm     96 % 0.3 mm
08:12 7.8 °C 7.2 °C 1016.1 hPa Calm     96 % 0.3 mm
08:17 7.8 °C 7.2 °C 1016.1 hPa Calm     96 % 0.3 mm
08:22 7.7 °C 7.1 °C 1016.1 hPa Calm     96 % 0.3 mm
08:32 7.7 °C 7.1 °C 1016.5 hPa Calm     96 % 0.0 mm
08:42 7.8 °C 7.2 °C 1016.5 hPa Calm     96 % 0.0 mm
08:57 7.4 °C 6.7 °C 1016.8 hPa Calm     95 % 0.0 mm
09:02 7.7 °C 7.1 °C 1016.8 hPa Calm     96 % 0.0 mm
09:07 8.0 °C 7.4 °C 1016.5 hPa Calm     96 % 0.0 mm
09:12 8.2 °C 7.6 °C 1016.8 hPa Calm     96 % 0.0 mm
09:17 8.4 °C 7.8 °C 1016.8 hPa Calm     96 % 0.0 mm
09:32 8.9 °C 8.3 °C 1016.8 hPa Calm     96 % 0.0 mm
09:42 9.1 °C 8.3 °C 1017.2 hPa Calm     95 % 0.0 mm
09:52 9.8 °C 9.0 °C 1017.2 hPa Calm     95 % 0.0 mm
09:57 10.3 °C 9.4 °C 1017.2 hPa Calm     94 % 0.0 mm
10:07 11.1 °C 9.4 °C 1017.2 hPa Calm     89 % 0.0 mm
10:12 11.4 °C 9.7 °C 1017.2 hPa Calm     89 % 0.0 mm
10:17 11.7 °C 9.4 °C 1017.2 hPa ESE 1.6 km/h   86 % 0.0 mm
10:22 12.0 °C 9.9 °C 1017.2 hPa Calm   3.2 km/h 87 % 0.0 mm
10:32 12.9 °C 10.3 °C 1017.2 hPa Calm   4.8 km/h 84 % 0.0 mm
10:42 13.2 °C 10.4 °C 1017.2 hPa Calm   4.8 km/h 83 % 0.0 mm
10:47 13.6 °C 10.9 °C 1017.2 hPa Calm   4.8 km/h 84 % 0.0 mm
10:52 13.8 °C 10.6 °C 1017.2 hPa SE 1.6 km/h 4.8 km/h 81 % 0.0 mm
11:02 14.0 °C 10.6 °C 1017.2 hPa Calm   6.4 km/h 80 % 0.0 mm
11:12 14.6 °C 11.0 °C 1017.2 hPa SE 1.6 km/h 8.0 km/h 79 % 0.0 mm
11:17 14.8 °C 10.4 °C 1017.2 hPa ENE 3.2 km/h 11.3 km/h 75 % 0.0 mm
11:22 15.0 °C 11.0 °C 1017.2 hPa ESE 3.2 km/h 11.3 km/h 77 % 0.0 mm
11:32 15.3 °C 10.5 °C 1017.2 hPa Calm   8.0 km/h 73 % 0.0 mm
11:42 15.7 °C 10.7 °C 1017.2 hPa SE 3.2 km/h 6.4 km/h 72 % 0.0 mm
11:52 16.1 °C 10.8 °C 1017.2 hPa Calm   6.4 km/h 71 % 0.0 mm
11:57 16.3 °C 11.2 °C 1017.2 hPa ESE 1.6 km/h 9.7 km/h 72 % 0.0 mm
12:02 16.6 °C 10.9 °C 1017.2 hPa Calm   9.7 km/h 69 % 0.0 mm
12:07 16.7 °C 10.8 °C 1017.2 hPa Calm   8.0 km/h 68 % 0.0 mm
12:12 16.8 °C 10.9 °C 1017.2 hPa SE 3.2 km/h 8.0 km/h 68 % 0.0 mm
12:17 17.0 °C 10.4 °C 1017.2 hPa SSW 8.0 km/h 8.0 km/h 65 % 0.0 mm
12:27 17.3 °C 10.9 °C 1017.2 hPa Calm   11.3 km/h 66 % 0.0 mm
12:32 17.6 °C 10.9 °C 1017.2 hPa SE 3.2 km/h 11.3 km/h 65 % 0.0 mm
12:52 18.2 °C 11.3 °C 1017.2 hPa SW 4.8 km/h 11.3 km/h 64 % 0.0 mm
12:57 18.1 °C 10.9 °C 1017.2 hPa South 6.4 km/h 11.3 km/h 63 % 0.0 mm
13:02 17.9 °C 11.0 °C 1017.2 hPa SSE 1.6 km/h 11.3 km/h 64 % 0.0 mm
13:07 17.9 °C 11.2 °C 1017.2 hPa Calm   11.3 km/h 65 % 0.0 mm
13:12 18.1 °C 11.4 °C 1017.2 hPa East 9.7 km/h 11.3 km/h 65 % 0.0 mm
13:22 17.9 °C 11.5 °C 1017.2 hPa SW 1.6 km/h 12.9 km/h 66 % 0.0 mm
13:32 17.8 °C 10.7 °C 1017.2 hPa South 3.2 km/h 12.9 km/h 63 % 0.0 mm
13:37 17.8 °C 11.4 °C 1017.2 hPa Calm   12.9 km/h 66 % 0.0 mm
13:42 17.9 °C 11.2 °C 1017.2 hPa East 14.5 km/h 14.5 km/h 65 % 0.0 mm
13:47 17.9 °C 11.7 °C 1017.2 hPa Calm   14.5 km/h 67 % 0.0 mm
13:52 17.8 °C 11.6 °C 1017.2 hPa Calm   14.5 km/h 67 % 0.0 mm
13:57 17.9 °C 11.9 °C 1017.2 hPa Calm   14.5 km/h 68 % 0.0 mm
14:02 18.1 °C 11.9 °C 1017.2 hPa SE 1.6 km/h 11.3 km/h 67 % 0.0 mm
14:12 18.5 °C 11.8 °C 1017.2 hPa ESE 3.2 km/h 11.3 km/h 65 % 0.0 mm
14:17 18.6 °C 11.9 °C 1017.2 hPa Calm   11.3 km/h 65 % 0.0 mm
14:22 18.7 °C 11.5 °C 1017.2 hPa SSE 6.4 km/h 11.3 km/h 63 % 0.0 mm
14:32 18.6 °C 11.4 °C 1016.8 hPa ESE 4.8 km/h 11.3 km/h 63 % 0.0 mm
14:37 18.6 °C 11.7 °C 1016.8 hPa Calm   11.3 km/h 64 % 0.0 mm
14:42 18.6 °C 11.4 °C 1017.2 hPa SSE 3.2 km/h 11.3 km/h 63 % 0.0 mm
14:47 18.7 °C 11.5 °C 1017.2 hPa SE 1.6 km/h 9.7 km/h 63 % 0.0 mm
14:52 18.6 °C 11.7 °C 1016.8 hPa SE 1.6 km/h 8.0 km/h 64 % 0.0 mm
14:57 18.7 °C 11.3 °C 1016.8 hPa ENE 3.2 km/h 8.0 km/h 62 % 0.0 mm
15:02 18.7 °C 11.5 °C 1016.8 hPa SE 6.4 km/h 8.0 km/h 63 % 0.0 mm
15:12 18.6 °C 11.4 °C 1017.2 hPa SE 4.8 km/h 11.3 km/h 63 % 0.0 mm
15:17 18.7 °C 11.3 °C 1016.8 hPa SW 3.2 km/h 14.5 km/h 62 % 0.0 mm
15:22 18.7 °C 11.0 °C 1016.8 hPa SSE 1.6 km/h 14.5 km/h 61 % 0.0 mm
15:27 18.8 °C 11.4 °C 1017.2 hPa ENE 1.6 km/h 14.5 km/h 62 % 0.0 mm
15:32 18.8 °C 11.8 °C 1016.8 hPa Calm   12.9 km/h 64 % 0.0 mm
15:42 18.6 °C 11.2 °C 1016.8 hPa SSE 3.2 km/h 11.3 km/h 62 % 0.0 mm
15:47 18.5 °C 11.3 °C 1016.8 hPa SE 1.6 km/h 11.3 km/h 63 % 0.0 mm
15:52 18.4 °C 11.2 °C 1017.2 hPa SE 4.8 km/h 11.3 km/h 63 % 0.0 mm
15:57 18.5 °C 11.6 °C 1016.8 hPa South 3.2 km/h 11.3 km/h 64 % 0.0 mm
16:02 18.6 °C 11.4 °C 1016.8 hPa SSW 4.8 km/h 11.3 km/h 63 % 0.0 mm
16:07 18.5 °C 11.3 °C 1016.8 hPa ESE 3.2 km/h 9.7 km/h 63 % 0.0 mm
16:17 18.7 °C 11.5 °C 1016.8 hPa South 1.6 km/h 9.7 km/h 63 % 0.0 mm
16:22 18.7 °C 11.5 °C 1016.8 hPa ESE 1.6 km/h 9.7 km/h 63 % 0.0 mm
16:27 18.8 °C 11.4 °C 1016.8 hPa South 1.6 km/h 9.7 km/h 62 % 0.0 mm
16:32 19.1 °C 11.6 °C 1017.2 hPa SSE 1.6 km/h 8.0 km/h 62 % 0.0 mm
16:37 19.4 °C 11.7 °C 1016.8 hPa SSW 4.8 km/h 8.0 km/h 61 % 0.0 mm
16:42 19.7 °C 11.7 °C 1016.8 hPa SE 1.6 km/h 8.0 km/h 60 % 0.0 mm
16:47 19.8 °C 11.6 °C 1016.8 hPa SE 9.7 km/h 9.7 km/h 59 % 0.0 mm
16:52 19.6 °C 11.6 °C 1017.2 hPa SE 3.2 km/h 16.1 km/h 60 % 0.0 mm
16:57 19.6 °C 11.9 °C 1017.2 hPa SSW 1.6 km/h 16.1 km/h 61 % 0.0 mm
17:02 19.6 °C 11.6 °C 1017.2 hPa ESE 3.2 km/h 16.1 km/h 60 % 0.0 mm
17:07 19.6 °C 11.6 °C 1017.2 hPa ENE 6.4 km/h 9.7 km/h 60 % 0.0 mm
17:12 19.5 °C 11.5 °C 1017.2 hPa SSE 4.8 km/h 9.7 km/h 60 % 0.0 mm
17:17 19.6 °C 11.6 °C 1017.2 hPa SW 3.2 km/h 9.7 km/h 60 % 0.0 mm
17:22 19.5 °C 11.5 °C 1017.2 hPa WSW 3.2 km/h 9.7 km/h 60 % 0.0 mm
17:27 19.6 °C 11.9 °C 1017.2 hPa Calm   8.0 km/h 61 % 0.0 mm
17:32 19.5 °C 11.5 °C 1017.2 hPa SSW 4.8 km/h 8.0 km/h 60 % 0.0 mm
17:37 19.4 °C 11.4 °C 1017.2 hPa SE 1.6 km/h 8.0 km/h 60 % 0.0 mm
17:42 19.2 °C 11.7 °C 1017.2 hPa SE 1.6 km/h 8.0 km/h 62 % 0.0 mm
17:52 19.2 °C 11.7 °C 1017.2 hPa Calm   11.3 km/h 62 % 0.0 mm
17:57 19.2 °C 11.7 °C 1017.2 hPa SE 3.2 km/h 11.3 km/h 62 % 0.0 mm
18:12 18.7 °C 11.8 °C 1017.2 hPa Calm   9.7 km/h 64 % 0.0 mm
18:17 18.5 °C 11.6 °C 1017.2 hPa Calm   9.7 km/h 64 % 0.0 mm
18:22 18.3 °C 11.8 °C 1017.2 hPa Calm   9.7 km/h 66 % 0.0 mm
18:32 17.8 °C 11.6 °C 1017.2 hPa Calm   8.0 km/h 67 % 0.0 mm
18:42 17.0 °C 11.3 °C 1017.2 hPa Calm   3.2 km/h 69 % 0.0 mm
18:52 16.3 °C 11.5 °C 1017.2 hPa Calm   3.2 km/h 73 % 0.0 mm
18:57 15.9 °C 11.3 °C 1017.5 hPa Calm   1.6 km/h 74 % 0.0 mm
19:12 14.7 °C 11.1 °C 1017.5 hPa Calm     79 % 0.0 mm
19:17 14.4 °C 11.2 °C 1017.5 hPa Calm     81 % 0.0 mm
19:22 14.3 °C 11.3 °C 1017.8 hPa Calm     82 % 0.0 mm
19:32 14.3 °C 11.5 °C 1017.8 hPa Calm     83 % 0.0 mm
19:37 14.2 °C 11.4 °C 1017.8 hPa Calm     83 % 0.0 mm
19:47 13.9 °C 11.2 °C 1017.8 hPa Calm   1.6 km/h 84 % 0.0 mm
19:52 13.7 °C 11.0 °C 1017.8 hPa Calm   6.4 km/h 84 % 0.0 mm
19:57 13.6 °C 11.1 °C 1017.8 hPa Calm   6.4 km/h 85 % 0.0 mm
20:02 13.5 °C 11.0 °C 1017.8 hPa Calm   4.8 km/h 85 % 0.0 mm
20:07 13.4 °C 10.9 °C 1017.8 hPa SE 1.6 km/h 4.8 km/h 85 % 0.0 mm
20:12 13.4 °C 10.9 °C 1017.8 hPa Calm   4.8 km/h 85 % 0.0 mm
20:17 13.3 °C 11.0 °C 1018.2 hPa Calm   3.2 km/h 86 % 0.0 mm
20:22 13.2 °C 10.9 °C 1018.2 hPa Calm   1.6 km/h 86 % 0.0 mm
20:27 13.1 °C 10.8 °C 1018.2 hPa Calm   1.6 km/h 86 % 0.0 mm
20:32 13.0 °C 10.9 °C 1018.2 hPa Calm   1.6 km/h 87 % 0.0 mm
20:37 12.9 °C 10.8 °C 1018.2 hPa Calm   1.6 km/h 87 % 0.0 mm
20:42 12.9 °C 10.8 °C 1018.2 hPa Calm   1.6 km/h 87 % 0.0 mm
20:47 12.9 °C 10.8 °C 1018.2 hPa Calm   1.6 km/h 87 % 0.0 mm
20:52 12.8 °C 10.7 °C 1018.2 hPa Calm   3.2 km/h 87 % 0.0 mm
20:57 12.8 °C 10.9 °C 1018.2 hPa SSE 1.6 km/h 3.2 km/h 88 % 0.0 mm
21:02 12.9 °C 11.0 °C 1018.2 hPa Calm   3.2 km/h 88 % 0.0 mm
21:07 13.0 °C 11.1 °C 1018.2 hPa SW 1.6 km/h 3.2 km/h 88 % 0.0 mm
21:17 12.9 °C 11.0 °C 1018.5 hPa SSW 1.6 km/h 4.8 km/h 88 % 0.0 mm
21:27 12.8 °C 10.9 °C 1018.5 hPa Calm   1.6 km/h 88 % 0.0 mm
21:32 12.8 °C 10.9 °C 1018.5 hPa SW 1.6 km/h 1.6 km/h 88 % 0.0 mm
21:37 12.8 °C 10.9 °C 1018.5 hPa Calm   1.6 km/h 88 % 0.0 mm
21:47 12.8 °C 10.9 °C 1018.5 hPa Calm   4.8 km/h 88 % 0.0 mm
21:52 12.8 °C 10.9 °C 1018.8 hPa SSW 1.6 km/h 4.8 km/h 88 % 0.0 mm
21:57 12.8 °C 10.9 °C 1018.8 hPa Calm   4.8 km/h 88 % 0.0 mm
22:02 12.7 °C 10.9 °C 1018.8 hPa SSW 1.6 km/h 4.8 km/h 89 % 0.0 mm
22:07 12.7 °C 10.9 °C 1018.8 hPa SSW 1.6 km/h 4.8 km/h 89 % 0.0 mm
22:12 12.6 °C 10.8 °C 1018.8 hPa Calm   4.8 km/h 89 % 0.0 mm
22:17 12.6 °C 10.8 °C 1018.8 hPa SSW 1.6 km/h 3.2 km/h 89 % 0.0 mm
22:22 12.5 °C 10.9 °C 1018.8 hPa Calm   3.2 km/h 90 % 0.0 mm
22:27 12.5 °C 10.9 °C 1018.8 hPa Calm   3.2 km/h 90 % 0.0 mm
22:32 12.4 °C 10.8 °C 1018.8 hPa Calm   1.6 km/h 90 % 0.0 mm
22:37 12.4 °C 10.8 °C 1018.8 hPa Calm   1.6 km/h 90 % 0.0 mm
22:42 12.4 °C 10.8 °C 1019.2 hPa Calm   1.6 km/h 90 % 0.0 mm
22:47 12.4 °C 10.8 °C 1018.8 hPa Calm   1.6 km/h 90 % 0.0 mm
22:52 12.4 °C 10.8 °C 1019.2 hPa Calm   1.6 km/h 90 % 0.0 mm
22:57 12.3 °C 10.7 °C 1019.2 hPa Calm     90 % 0.0 mm
23:02 12.3 °C 10.7 °C 1019.2 hPa Calm     90 % 0.0 mm
23:07 12.2 °C 10.8 °C 1019.2 hPa Calm     91 % 0.0 mm
23:12 12.2 °C 10.8 °C 1019.2 hPa Calm     91 % 0.0 mm
23:17 12.2 °C 10.8 °C 1019.2 hPa Calm     91 % 0.0 mm
23:22 12.2 °C 10.8 °C 1019.2 hPa Calm     91 % 0.0 mm
23:27 12.2 °C 10.8 °C 1019.2 hPa Calm     91 % 0.0 mm
23:32 12.2 °C 10.8 °C 1019.2 hPa Calm     91 % 0.0 mm
23:37 12.1 °C 10.7 °C 1019.2 hPa Calm     91 % 0.0 mm
23:42 12.1 °C 10.7 °C 1019.2 hPa Calm     91 % 0.0 mm
23:47 12.1 °C 10.8 °C 1019.2 hPa Calm     92 % 0.0 mm
23:52 12.1 °C 10.8 °C 1019.2 hPa Calm     92 % 0.0 mm
23:57 12.0 °C 10.7 °C 1019.2 hPa Calm     92 % 0.0 mm
Meteo18
Compliments of Weather Underground - 4 mb

Script developed by  Jim McMurry - jmcmurry@mwt.net Adapted for the template by  Wim van der Kuil - Leuven-Template.eu

You find our weather info also at:

European Weather Network

Weather Underground

Equipment we use:

Weather-station
Davis Vue

Weather-program
Meteohub

Weather-server
Raspberry PI 2 B+

Provider
1 and 1

Davis Vue

Meteohub

Raspberry PI 2 B+

1 and 1